This is the latest recevied weather packets stored in our database for station/object IU5JAE-13. If no packets are shown the sender has not sent any weather packets the latest 10 day(s).
| Time | Temp. | Humidity | Pressure | Rain* | Wind** | Luminosity | Snow |
|---|---|---|---|---|---|---|---|
| 1788713135 | 29.44° C | 57% | 1022.9 hPa | 0 mm | - | 35 W/m² | - |
| 1788712531 | 30° C | 56% | 1022.9 hPa | 0 mm | - | 45 W/m² | - |
| 1788711950 | 30° C | 56% | 1022.8 hPa | 0 mm | - | 57 W/m² | - |
| 1788711327 | 30.56° C | 56% | 1022.8 hPa | 0 mm | - | 68 W/m² | - |
| 1788710725 | 31.67° C | 52% | 1022.6 hPa | 0 mm | - | 79 W/m² | - |
| 1788710126 | 32.78° C | 52% | 1022.7 hPa | 0 mm | - | 124 W/m² | - |
| 1788709519 | 32.22° C | 50% | 1022.7 hPa | 0 mm | - | 178 W/m² | - |
| 1788708917 | 32.78° C | 48% | 1022.8 hPa | 0 mm | - | 200 W/m² | - |
| 1788708335 | 32.22° C | 48% | 1022.8 hPa | 0 mm | - | 220 W/m² | - |
| 1788707732 | 31.11° C | 50% | 1022.8 hPa | 0 mm | - | 234 W/m² | - |
| 1788707130 | 32.78° C | 50% | 1022.8 hPa | 0 mm | - | 224 W/m² | - |
| 1788706527 | 32.22° C | 49% | 1022.8 hPa | 0 mm | - | 247 W/m² | - |
| 1788705925 | 31.67° C | 51% | 1022.8 hPa | 0 mm | - | 265 W/m² | - |
| 1788705323 | 31.11° C | 52% | 1022.9 hPa | 0 mm | - | 285 W/m² | - |
| 1788704720 | 31.11° C | 52% | 1022.9 hPa | 0 mm | - | 298 W/m² | - |
| 1788704118 | 31.11° C | 53% | 1022.9 hPa | 0 mm | - | 313 W/m² | - |
| 1788703515 | 32.22° C | 51% | 1022.9 hPa | 0 mm | - | 333 W/m² | - |
| 1788702933 | 31.67° C | 53% | 1023 hPa | 0 mm | - | 347 W/m² | - |
| 1788702331 | 31.67° C | 52% | 1023.1 hPa | 0 mm | - | 358 W/m² | - |
| 1788701728 | 31.67° C | 52% | 1023.1 hPa | 0 mm | - | 365 W/m² | - |
| 1788701126 | 31.67° C | 52% | 1023.1 hPa | 0 mm | - | 396 W/m² | - |
| 1788700523 | 31.11° C | 52% | 1023 hPa | 0 mm | - | 434 W/m² | - |
| 1788699921 | 31.11° C | 53% | 1023.2 hPa | 0 mm | - | 446 W/m² | - |
| 1788699318 | 30.56° C | 54% | 1023.1 hPa | 0 mm | - | 453 W/m² | - |
| 1788698716 | 31.11° C | 53% | 1023.2 hPa | 0 mm | - | 457 W/m² | - |
* Rain latest hour (hover to see other rain measurements)
** Current wind speed in m/s (hover to see current wind gust speed)